SAS87C EKCH-RKSI
Flight info
| Callsign | SAS87C |
|---|---|
| Flight time | N/A |
| Altitude | 35000 |
| Route | SIMEG Z493 BILRA DCT UVIVI DCT BAREX DCT KELEL/N0492F370 DCT KEKED DCT BADOR DCT LUGEB DCT UDROS UM859 KARDE UN644 ROLIN N644 LAGAS M747 SUBUT T916 LEYLA N161 GASBI/K0902F370 N161 ARLIF/K0900F390 N161 SARIN/K0889S1190 A368 FKG W188 LIKMI/K0898S1250 W270 DKO W69 HUR B339 LADIX W34 VAPGU W100 ORAVA W201 UNSEK A326 DONVO G597 AGAVO/N0484F410 Y644 REBIT REBIT1Y |
| Aircraft | A359/H-SDE2E3GHIJ3J4J5LM1ORWXY/LB1D1 |
Departure
| Time | 2026-04-22 11:16 |
|---|---|
| Airport | Copenhagen Kastrup Airport (EKCH) |
Arrival
| Time | N/A |
|---|---|
| Airport | Incheon International Airport (RKSI) |
| Time | Latitude | Longitude | Altitude | Speed | Heading |
|---|---|---|---|---|---|
| 2026-04-22 10:44 | 55.62429 | 12.65085 | 23 ft | 0 kts | 269° |
| 2026-04-22 10:45 | 55.62429 | 12.65086 | 23 ft | 0 kts | 269° |
| 2026-04-22 11:04 | 55.62429 | 12.65089 | 24 ft | 1 kts | 269° |
| 2026-04-22 11:04 | 55.62429 | 12.65103 | 25 ft | 2 kts | 269° |
| 2026-04-22 11:04 | 55.62430 | 12.65149 | 28 ft | 3 kts | 262° |
| 2026-04-22 11:05 | 55.62432 | 12.65171 | 28 ft | 3 kts | 251° |
| 2026-04-22 11:05 | 55.62438 | 12.65198 | 28 ft | 3 kts | 206° |
| 2026-04-22 11:05 | 55.62442 | 12.65202 | 28 ft | 1 kts | 187° |
| 2026-04-22 11:05 | 55.62457 | 12.65205 | 28 ft | 3 kts | 179° |
| 2026-04-22 11:06 | 55.62477 | 12.65203 | 28 ft | 3 kts | 173° |
| 2026-04-22 11:06 | 55.62496 | 12.65199 | 28 ft | 2 kts | 177° |
| 2026-04-22 11:06 | 55.62502 | 12.65199 | 28 ft | 1 kts | 179° |
| 2026-04-22 11:06 | 55.62511 | 12.65198 | 26 ft | 1 kts | 179° |
| 2026-04-22 11:07 | 55.62517 | 12.65198 | 26 ft | 0 kts | 179° |
| 2026-04-22 11:10 | 55.62485 | 12.65199 | 23 ft | 10 kts | 179° |
| 2026-04-22 11:10 | 55.62396 | 12.65203 | 26 ft | 14 kts | 179° |
| 2026-04-22 11:10 | 55.62295 | 12.65207 | 26 ft | 15 kts | 179° |
| 2026-04-22 11:10 | 55.62192 | 12.65166 | 25 ft | 16 kts | 209° |
| 2026-04-22 11:11 | 55.62100 | 12.65058 | 27 ft | 16 kts | 213° |
| 2026-04-22 11:11 | 55.62005 | 12.64947 | 24 ft | 17 kts | 213° |
| 2026-04-22 11:11 | 55.61904 | 12.64828 | 27 ft | 18 kts | 213° |
| 2026-04-22 11:11 | 55.61799 | 12.64707 | 26 ft | 18 kts | 213° |
| 2026-04-22 11:12 | 55.61690 | 12.64580 | 27 ft | 19 kts | 212° |
| 2026-04-22 11:12 | 55.61577 | 12.64453 | 27 ft | 20 kts | 213° |
| 2026-04-22 11:12 | 55.61462 | 12.64319 | 26 ft | 20 kts | 213° |
| 2026-04-22 11:12 | 55.61343 | 12.64183 | 26 ft | 21 kts | 213° |
| 2026-04-22 11:13 | 55.61221 | 12.64044 | 28 ft | 21 kts | 213° |
| 2026-04-22 11:13 | 55.61097 | 12.63902 | 27 ft | 22 kts | 213° |
| 2026-04-22 11:13 | 55.60969 | 12.63757 | 26 ft | 22 kts | 212° |
| 2026-04-22 11:13 | 55.60842 | 12.63610 | 27 ft | 22 kts | 213° |
| 2026-04-22 11:14 | 55.60711 | 12.63458 | 25 ft | 23 kts | 213° |
| 2026-04-22 11:14 | 55.60585 | 12.63288 | 26 ft | 22 kts | 220° |
| 2026-04-22 11:14 | 55.60483 | 12.63134 | 27 ft | 15 kts | 214° |
| 2026-04-22 11:14 | 55.60395 | 12.63159 | 28 ft | 14 kts | 135° |
| 2026-04-22 11:15 | 55.60335 | 12.63287 | 29 ft | 9 kts | 127° |
| 2026-04-22 11:15 | 55.60347 | 12.63361 | 31 ft | 6 kts | 49° |
| 2026-04-22 11:15 | 55.60443 | 12.63511 | 25 ft | 45 kts | 41° |
| 2026-04-22 11:15 | 55.60846 | 12.64129 | 30 ft | 107 kts | 40° |
| 2026-04-22 11:16 | 55.61547 | 12.65222 | 29 ft | 161 kts | 39° |
| 2026-04-22 11:16 | 55.62425 | 12.66636 | 486 ft | 167 kts | 34° |
| 2026-04-22 11:16 | 55.63264 | 12.67932 | 1389 ft | 156 kts | 38° |
| 2026-04-22 11:16 | 55.64083 | 12.69204 | 1914 ft | 158 kts | 40° |
| 2026-04-22 11:17 | 55.64891 | 12.70542 | 2354 ft | 159 kts | 42° |
| 2026-04-22 11:17 | 55.65543 | 12.72135 | 2649 ft | 171 kts | 76° |
| 2026-04-22 11:17 | 55.65325 | 12.74281 | 2890 ft | 189 kts | 115° |
| 2026-04-22 11:17 | 55.64339 | 12.75910 | 3297 ft | 206 kts | 153° |
| 2026-04-22 11:18 | 55.62892 | 12.76035 | 3615 ft | 221 kts | 194° |
| 2026-04-22 11:18 | 55.61364 | 12.75187 | 3963 ft | 235 kts | 197° |
| 2026-04-22 11:18 | 55.59783 | 12.74308 | 4452 ft | 243 kts | 196° |
| 2026-04-22 11:18 | 55.58109 | 12.73706 | 4949 ft | 248 kts | 175° |
| 2026-04-22 11:19 | 55.56442 | 12.74397 | 5513 ft | 247 kts | 159° |
| 2026-04-22 11:19 | 55.54774 | 12.75414 | 5831 ft | 263 kts | 159° |
| 2026-04-22 11:19 | 55.53018 | 12.76399 | 6370 ft | 268 kts | 160° |
| 2026-04-22 11:19 | 55.51204 | 12.77252 | 7017 ft | 273 kts | 166° |
| 2026-04-22 11:20 | 55.49291 | 12.77761 | 7623 ft | 279 kts | 170° |
| 2026-04-22 11:20 | 55.47368 | 12.78262 | 8235 ft | 282 kts | 164° |
| 2026-04-22 11:20 | 55.45562 | 12.79531 | 8894 ft | 280 kts | 144° |
| 2026-04-22 11:20 | 55.44195 | 12.81909 | 9548 ft | 276 kts | 119° |
| 2026-04-22 11:21 | 55.43278 | 12.84842 | 10230 ft | 277 kts | 113° |